Time;durP1;ratioP1;P1;durP2;ratioP2;P2;SDS_P1;SDS_P2;PMS_P1;PMS_P2;Temp;Humidity;BMP_temperature;BMP_pressure;BME280_temperature;BME280_humidity;BME280_pressure;Samples;Min_cycle;Max_cycle;Signal;HPM_P1;HPM_P2
2022/10/13 00:00:45;;;;;;;23.80;11.30;;;9.30;99.90;;;;;;4877659;29;20049;-87
2022/10/13 00:03:11;;;;;;;26.80;12.27;;;9.30;99.90;;;;;;4878387;29;20048;-86
2022/10/13 00:05:42;;;;;;;28.60;12.70;;;9.30;99.90;;;;;;4892994;29;20097;-87
2022/10/13 00:08:09;;;;;;;26.35;12.25;;;9.30;99.90;;;;;;4878360;29;20478;-87
2022/10/13 00:10:37;;;;;;;27.15;12.18;;;9.40;99.90;;;;;;4877996;29;20572;-87
2022/10/13 00:13:03;;;;;;;33.90;13.27;;;9.30;99.90;;;;;;4878741;29;20454;-86
2022/10/13 00:15:30;;;;;;;26.00;12.85;;;9.30;99.90;;;;;;4878372;29;20040;-87
2022/10/13 00:17:56;;;;;;;24.42;11.93;;;9.40;99.90;;;;;;4877121;29;20111;-87
2022/10/13 00:20:21;;;;;;;31.23;12.43;;;9.40;99.90;;;;;;4877270;29;20044;-87
2022/10/13 00:22:47;;;;;;;29.10;13.05;;;9.40;99.90;;;;;;4892980;29;20131;-87
2022/10/13 00:25:13;;;;;;;27.30;12.70;;;9.40;99.90;;;;;;4877404;29;20060;-87
2022/10/13 00:27:38;;;;;;;28.75;12.55;;;9.30;99.90;;;;;;4877910;29;20407;-87
2022/10/13 00:30:05;;;;;;;29.58;13.48;;;9.40;99.90;;;;;;4893589;29;20056;-87
2022/10/13 00:32:30;;;;;;;31.92;12.93;;;9.30;99.90;;;;;;4893176;29;20060;-87
2022/10/13 00:34:56;;;;;;;25.63;12.40;;;9.40;99.90;;;;;;4876480;29;20520;-86
2022/10/13 00:37:23;;;;;;;23.90;13.07;;;9.30;99.90;;;;;;4878036;29;20051;-86
2022/10/13 00:39:49;;;;;;;35.55;14.45;;;9.30;99.90;;;;;;4892232;29;20060;-87
2022/10/13 00:42:14;;;;;;;31.77;14.02;;;9.40;99.90;;;;;;4877657;29;20048;-87
2022/10/13 00:45:17;;;;;;;28.70;13.48;;;9.40;99.90;;;;;;4892343;29;20493;-87
2022/10/13 00:47:47;;;;;;;21.83;12.40;;;9.40;99.90;;;;;;4876729;29;20417;-87
2022/10/13 00:50:19;;;;;;;24.40;12.93;;;9.30;99.90;;;;;;4876926;29;20040;-87
2022/10/13 00:52:47;;;;;;;26.20;14.27;;;9.30;99.90;;;;;;4876836;29;20099;-87
2022/10/13 00:55:17;;;;;;;35.15;13.60;;;9.40;99.90;;;;;;4877130;29;20076;-87
2022/10/13 00:57:47;;;;;;;29.23;13.50;;;9.30;99.90;;;;;;4877287;29;20425;-87
2022/10/13 01:00:13;;;;;;;26.98;14.00;;;9.30;99.90;;;;;;4876357;29;20101;-86
2022/10/13 01:02:40;;;;;;;38.95;14.07;;;9.30;99.90;;;;;;4877368;29;20163;-87
2022/10/13 01:05:06;;;;;;;28.65;14.10;;;9.30;99.90;;;;;;4876389;29;20044;-87
2022/10/13 01:07:34;;;;;;;29.08;13.25;;;9.40;99.90;;;;;;4877260;29;20089;-87
2022/10/13 01:10:01;;;;;;;35.83;15.10;;;9.40;99.90;;;;;;4876997;29;20109;-86
2022/10/13 01:12:37;;;;;;;29.38;13.82;;;9.30;99.90;;;;;;4877307;29;20124;-86
2022/10/13 01:15:20;;;;;;;36.72;14.73;;;9.40;99.90;;;;;;4876013;29;20052;-87
2022/10/13 01:17:52;;;;;;;30.10;14.73;;;9.40;99.90;;;;;;4876739;29;20048;-87
2022/10/13 01:20:38;;;;;;;30.80;14.18;;;9.40;99.90;;;;;;4893560;29;20078;-87
2022/10/13 01:23:24;;;;;;;35.10;15.43;;;9.40;99.90;;;;;;4880048;29;20462;-88
2022/10/13 01:26:21;;;;;;;26.35;13.75;;;9.40;99.90;;;;;;4895248;29;20720;-87
2022/10/13 01:28:54;;;;;;;27.55;14.40;;;9.30;99.90;;;;;;4879138;29;20063;-86
2022/10/13 01:31:25;;;;;;;;;;;9.30;99.90;;;;;;4880163;29;20040;-87
2022/10/13 01:34:03;;;;;;;29.73;13.85;;;9.40;99.90;;;;;;4880162;29;19923;-87
2022/10/13 01:36:42;;;;;;;32.40;13.80;;;9.30;99.90;;;;;;4879039;29;20055;-87
2022/10/13 01:39:18;;;;;;;32.58;14.75;;;9.30;99.90;;;;;;4880171;29;20056;-87
2022/10/13 01:41:51;;;;;;;29.40;14.57;;;9.30;99.90;;;;;;4879396;29;20079;-88
2022/10/13 01:44:29;;;;;;;33.53;14.93;;;9.30;99.90;;;;;;4895624;29;20040;-87
2022/10/13 01:46:56;;;;;;;25.25;14.57;;;9.30;99.90;;;;;;4879794;29;20044;-87
2022/10/13 01:49:26;;;;;;;37.22;14.82;;;9.40;99.90;;;;;;4879067;29;20036;-87
2022/10/13 01:51:55;;;;;;;30.27;15.00;;;9.30;99.90;;;;;;4879215;29;20132;-87
2022/10/13 01:54:21;;;;;;;31.63;15.80;;;9.40;99.90;;;;;;4880163;29;20469;-88
2022/10/13 01:56:52;;;;;;;27.92;14.75;;;9.30;99.90;;;;;;4894375;29;20135;-88
2022/10/13 01:59:19;;;;;;;28.10;14.40;;;9.40;99.90;;;;;;4879846;29;20060;-88
2022/10/13 02:01:56;;;;;;;30.77;14.40;;;9.40;99.90;;;;;;4895263;29;20056;-88
2022/10/13 02:04:29;;;;;;;25.40;15.15;;;9.30;99.90;;;;;;4879384;29;20134;-88
2022/10/13 02:07:10;;;;;;;30.33;14.52;;;9.30;99.90;;;;;;4879134;29;20158;-88
2022/10/13 02:09:49;;;;;;;24.95;14.20;;;9.40;99.90;;;;;;4879558;29;20698;-88
2022/10/13 02:12:26;;;;;;;30.88;14.27;;;9.30;99.90;;;;;;4879260;29;20052;-88
2022/10/13 02:14:55;;;;;;;34.97;14.52;;;9.30;99.90;;;;;;4878907;29;20048;-88
2022/10/13 02:17:21;;;;;;;28.48;15.48;;;9.40;99.90;;;;;;4879476;29;20055;-88
2022/10/13 02:19:48;;;;;;;27.75;15.45;;;9.30;99.90;;;;;;4878979;29;20048;-88
2022/10/13 02:22:15;;;;;;;39.13;15.45;;;9.30;99.90;;;;;;4894568;29;20417;-88
2022/10/13 02:24:41;;;;;;;30.90;15.75;;;9.30;99.90;;;;;;4894620;29;20564;-88
2022/10/13 02:27:07;;;;;;;34.28;15.30;;;9.40;99.90;;;;;;4894602;29;20052;-88
2022/10/13 02:29:33;;;;;;;32.28;16.67;;;9.30;99.90;;;;;;4880384;29;20048;-88
2022/10/13 02:31:59;;;;;;;37.92;16.60;;;9.30;99.90;;;;;;4878428;29;20465;-89
2022/10/13 02:34:25;;;;;;;33.38;15.93;;;9.30;99.90;;;;;;4895196;29;20126;-88
2022/10/13 02:36:50;;;;;;;33.35;15.90;;;9.40;99.90;;;;;;4878475;29;20147;-87
2022/10/13 02:39:16;;;;;;;33.45;15.63;;;9.20;99.90;;;;;;4893861;29;20528;-88
2022/10/13 02:41:42;;;;;;;31.02;15.43;;;9.20;99.90;;;;;;4894656;29;20052;-87
2022/10/13 02:47:49;;;;;;;37.80;16.60;;;9.30;99.90;;;;;;4911114;29;20047;-88
2022/10/13 02:50:15;;;;;;;35.03;17.02;;;9.30;99.90;;;;;;4894339;29;20048;-88
2022/10/13 02:52:41;;;;;;;38.05;16.27;;;9.20;99.90;;;;;;4878839;29;20044;-87
2022/10/13 02:55:07;;;;;;;33.92;16.77;;;9.20;99.90;;;;;;4879369;29;20087;-87
2022/10/13 02:57:33;;;;;;;31.08;16.38;;;9.20;99.90;;;;;;4879396;29;20078;-88
2022/10/13 02:59:59;;;;;;;35.70;17.33;;;9.20;99.90;;;;;;4893431;29;20492;-88
2022/10/13 03:02:26;;;;;;;29.20;16.35;;;9.20;99.90;;;;;;4895034;29;20052;-88
2022/10/13 03:04:52;;;;;;;35.10;16.40;;;9.10;99.90;;;;;;4892965;29;20040;-88
2022/10/13 03:07:18;;;;;;;30.95;15.95;;;9.50;99.90;;;;;;4893876;29;20063;-88
2022/10/13 03:09:43;;;;;;;30.38;16.90;;;9.20;99.90;;;;;;4898000;29;20056;-89
2022/10/13 03:12:09;;;;;;;38.53;18.13;;;9.10;99.90;;;;;;4897782;29;20040;-87
2022/10/13 03:14:35;;;;;;;38.65;16.13;;;9.20;99.90;;;;;;4898287;29;20047;-87
2022/10/13 03:17:01;;;;;;;31.38;16.30;;;9.20;99.90;;;;;;4897692;29;20066;-88
2022/10/13 03:19:27;;;;;;;28.63;15.57;;;9.30;99.90;;;;;;4898399;29;20056;-87
2022/10/13 03:21:52;;;;;;;37.92;16.05;;;9.30;99.90;;;;;;4896643;29;20059;-88
2022/10/13 03:24:18;;;;;;;30.65;15.38;;;9.20;99.90;;;;;;4898186;29;20044;-88
2022/10/13 03:26:44;;;;;;;30.60;16.52;;;9.20;99.90;;;;;;4898258;29;20647;-87
2022/10/13 03:29:13;;;;;;;32.55;16.77;;;9.30;99.90;;;;;;4897260;29;20116;-88
2022/10/13 03:31:40;;;;;;;35.90;15.43;;;9.20;99.90;;;;;;4898188;29;20044;-88
2022/10/13 03:34:06;;;;;;;29.85;16.88;;;9.30;99.90;;;;;;4898129;29;20087;-87
2022/10/13 03:36:32;;;;;;;37.35;16.67;;;9.40;99.90;;;;;;4896951;29;20051;-88
2022/10/13 03:38:57;;;;;;;32.25;16.05;;;9.30;99.90;;;;;;4897985;29;20449;-88
2022/10/13 03:41:23;;;;;;;30.08;16.38;;;9.30;99.90;;;;;;4896966;29;20087;-88
2022/10/13 03:43:49;;;;;;;36.05;17.08;;;9.40;99.90;;;;;;4897650;29;20043;-88
2022/10/13 03:46:16;;;;;;;35.28;17.77;;;9.40;99.90;;;;;;4897721;29;20056;-87
2022/10/13 03:48:42;;;;;;;29.05;16.92;;;9.40;99.90;;;;;;4881685;29;20489;-88
2022/10/13 03:51:10;;;;;;;35.00;17.45;;;9.50;99.90;;;;;;4897281;29;20563;-89
2022/10/13 03:53:36;;;;;;;28.25;17.40;;;9.40;99.90;;;;;;4883036;29;20048;-89
2022/10/13 03:56:04;;;;;;;35.53;17.60;;;9.40;99.90;;;;;;4881796;29;20106;-90
2022/10/13 03:58:30;;;;;;;37.75;19.15;;;9.50;99.90;;;;;;4882344;29;20151;-89
2022/10/13 04:01:01;;;;;;;35.50;18.38;;;9.50;99.90;;;;;;4898599;29;20058;-89
2022/10/13 04:03:30;;;;;;;34.95;18.88;;;9.60;99.90;;;;;;4882069;29;20083;-89
2022/10/13 04:06:00;;;;;;;37.03;18.38;;;9.40;99.90;;;;;;4882259;29;20087;-89
2022/10/13 04:08:50;;;;;;;42.25;19.30;;;9.40;99.90;;;;;;4883091;29;20127;-90
2022/10/13 04:11:17;;;;;;;43.88;19.45;;;9.50;99.90;;;;;;4882653;29;20076;-90
2022/10/13 04:34:21;;;;;;;38.60;21.48;;;9.70;99.90;;;;;;4915233;29;20067;-95
2022/10/13 04:36:50;;;;;;;49.47;22.20;;;9.30;99.90;;;;;;4897798;29;20055;-95
2022/10/13 04:39:17;;;;;;;41.70;22.23;;;9.50;99.90;;;;;;4899374;29;20060;-95
2022/10/13 04:41:45;;;;;;;39.03;22.25;;;9.50;99.90;;;;;;4899457;29;20477;-94
2022/10/13 04:44:16;;;;;;;44.85;22.75;;;9.60;99.90;;;;;;4899571;29;20135;-95
2022/10/13 04:46:44;;;;;;;47.22;25.23;;;9.40;99.90;;;;;;4898899;29;20131;-95
2022/10/13 04:49:10;;;;;;;48.78;24.25;;;9.60;99.90;;;;;;4899853;29;20052;-96
2022/10/13 04:51:46;;;;;;;;;;;;;;;;;;;;;
2022/10/13 04:54:14;;;;;;;55.17;25.65;;;9.40;99.90;;;;;;4915323;29;20527;-95
2022/10/13 04:56:43;;;;;;;46.20;23.92;;;9.50;99.90;;;;;;4899384;29;20055;-95
2022/10/13 04:59:17;;;;;;;50.30;26.17;;;9.60;99.90;;;;;;4898747;29;20048;-95
2022/10/13 05:01:45;;;;;;;60.22;26.30;;;9.50;99.90;;;;;;4895173;29;20457;-94
2022/10/13 05:04:19;;;;;;;50.50;24.80;;;9.60;99.90;;;;;;4895954;29;20108;-95
2022/10/13 05:06:50;;;;;;;51.70;25.60;;;10.10;99.90;;;;;;4895554;29;20059;-96
2022/10/13 05:09:23;;;;;;;43.25;24.45;;;9.60;99.90;;;;;;4896426;29;20052;-95
2022/10/13 05:12:28;;;;;;;58.05;27.02;;;9.50;99.90;;;;;;4896120;29;20127;-95
2022/10/13 05:15:01;;;;;;;58.05;26.98;;;9.60;99.90;;;;;;4879942;29;20048;-95
2022/10/13 05:17:31;;;;;;;54.60;26.52;;;9.80;99.90;;;;;;4896316;29;20092;-96
2022/10/13 05:20:08;;;;;;;48.40;26.40;;;9.60;99.90;;;;;;4894881;29;20091;-95
2022/10/13 05:22:57;;;;;;;53.28;28.15;;;9.60;99.90;;;;;;4896070;29;20048;-96
2022/10/13 05:25:25;;;;;;;56.03;25.92;;;9.50;99.90;;;;;;4880017;29;20057;-95
2022/10/13 05:28:04;;;;;;;55.65;27.48;;;9.60;99.90;;;;;;4894981;29;20081;-95
2022/10/13 05:30:39;;;;;;;57.60;27.15;;;9.50;99.90;;;;;;4879911;29;20124;-95
2022/10/13 05:33:16;;;;;;;65.22;28.85;;;9.60;99.90;;;;;;4894287;29;20060;-96
2022/10/13 05:36:15;;;;;;;58.15;29.50;;;10.00;99.90;;;;;;4894505;29;20128;-94
2022/10/13 05:39:15;;;;;;;64.20;28.50;;;9.00;99.90;;;;;;4896591;29;20466;-95
2022/10/13 05:41:49;;;;;;;70.47;29.75;;;9.60;99.90;;;;;;4866933;29;20060;-96
2022/10/13 05:44:30;;;;;;;50.30;27.58;;;9.50;99.90;;;;;;4898307;29;20055;-96
2022/10/13 05:47:11;;;;;;;55.08;28.25;;;9.60;99.90;;;;;;4910394;29;20044;-95
2022/10/13 05:49:40;;;;;;;60.72;29.67;;;9.50;99.90;;;;;;4878855;29;20489;-95
2022/10/13 05:52:19;;;;;;;62.72;30.35;;;9.70;99.90;;;;;;4889828;29;20132;-95
2022/10/13 05:54:51;;;;;;;66.65;30.38;;;9.50;99.90;;;;;;4882572;29;20096;-96
2022/10/13 05:57:29;;;;;;;54.88;28.65;;;9.50;99.90;;;;;;4882200;29;20047;-95
2022/10/13 06:00:13;;;;;;;52.40;28.92;;;9.50;99.90;;;;;;4881912;29;20614;-96
2022/10/13 06:02:56;;;;;;;63.53;29.35;;;9.60;99.90;;;;;;4882765;29;20066;-96
2022/10/13 06:05:24;;;;;;;63.85;30.80;;;9.70;99.90;;;;;;4883039;29;20647;-96
2022/10/13 06:07:54;;;;;;;63.83;30.10;;;9.60;99.90;;;;;;4884447;29;20044;-96
2022/10/13 06:10:46;;;;;;;70.38;31.20;;;9.60;99.90;;;;;;4882281;29;20051;-96
2022/10/13 06:13:14;;;;;;;55.90;29.98;;;9.40;99.90;;;;;;4836289;29;20254;-95
2022/10/13 06:15:39;;;;;;;61.30;29.85;;;9.70;99.90;;;;;;4882486;29;20083;-95
2022/10/13 06:18:08;;;;;;;67.53;32.53;;;9.60;99.90;;;;;;4881721;29;20115;-95
2022/10/13 06:20:33;;;;;;;71.97;32.78;;;9.70;99.90;;;;;;4881406;29;20052;-95
2022/10/13 06:23:02;;;;;;;59.88;30.63;;;9.60;99.90;;;;;;4881802;29;20055;-96
2022/10/13 06:25:28;;;;;;;61.15;31.83;;;9.70;99.90;;;;;;4882735;29;20048;-95
2022/10/13 06:27:56;;;;;;;65.25;32.28;;;9.70;99.90;;;;;;4882607;29;20469;-95
2022/10/13 06:45:18;;;;;;;76.22;34.65;;;9.80;99.90;;;;;;5088874;23;20081;-96
2022/10/13 06:55:38;;;;;;;83.38;37.05;;;9.90;99.90;;;;;;5577235;23;20056;-96
2022/10/13 06:58:15;;;;;;;;;;;;;;;;;;;;;
2022/10/13 07:00:47;;;;;;;75.75;36.85;;;10.40;99.90;;;;;;4910314;29;20052;-96
2022/10/13 07:03:21;;;;;;;64.72;34.03;;;9.80;99.90;;;;;;4892835;29;20060;-96
2022/10/13 07:06:33;;;;;;;83.28;36.80;;;10.10;99.90;;;;;;4895302;29;20155;-95
2022/10/13 07:10:47;;;;;;;;;;;;;;;;;;;;;
2022/10/13 11:07:37;;;;;;;45.70;27.58;;;13.10;99.90;;;;;;5275468;23;20501;-93
2022/10/13 15:12:16;;;;;;;;;;;;;;;;;;;;;
2022/10/13 15:15:55;;;;;;;34.72;21.58;;;13.90;99.90;;;;;;4738227;29;20042;-96
2022/10/13 17:16:30;;;;;;;8.95;2.10;;;13.00;99.90;;;;;;4914435;29;20044;-92
2022/10/13 17:19:21;;;;;;;6.38;2.90;;;12.90;99.90;;;;;;4809646;29;20104;-92
2022/10/13 17:21:56;;;;;;;10.77;2.42;;;12.90;99.90;;;;;;4855613;29;20052;-93
2022/10/13 17:24:52;;;;;;;9.18;2.25;;;12.90;99.90;;;;;;4885826;29;20084;-96
2022/10/13 17:27:46;;;;;;;7.32;2.15;;;13.00;99.90;;;;;;4855641;23;20048;-96
2022/10/13 17:30:40;;;;;;;8.43;2.25;;;13.00;99.90;;;;;;4880230;29;20056;-96
2022/10/13 17:36:42;;;;;;;9.50;2.80;;;13.10;99.90;;;;;;4964870;23;20051;-94
2022/10/13 17:39:33;;;;;;;9.18;2.75;;;12.90;99.90;;;;;;4826359;29;20133;-95
2022/10/13 17:42:48;;;;;;;11.23;2.50;;;13.00;99.90;;;;;;4886215;29;20087;-95
2022/10/13 17:46:05;;;;;;;9.13;2.65;;;12.90;99.90;;;;;;4850244;29;20141;-94
2022/10/13 17:52:46;;;;;;;7.63;2.70;;;12.80;99.90;;;;;;4894548;29;20059;-96
2022/10/13 17:55:17;;;;;;;12.00;4.80;;;12.70;99.90;;;;;;4886178;29;20115;-95
2022/10/13 17:58:05;;;;;;;10.40;3.17;;;12.70;99.90;;;;;;4897170;29;20056;-94
2022/10/13 18:01:12;;;;;;;12.60;3.17;;;12.80;99.90;;;;;;4883282;29;20052;-93
2022/10/13 18:04:10;;;;;;;11.50;3.22;;;12.50;99.90;;;;;;4879757;29;20462;-95
2022/10/13 18:07:06;;;;;;;9.57;4.07;;;12.80;99.90;;;;;;4890803;29;20066;-95
2022/10/13 18:10:37;;;;;;;13.00;3.60;;;12.60;99.90;;;;;;4863669;29;20040;-95
2022/10/13 18:13:48;;;;;;;10.77;3.55;;;12.80;99.90;;;;;;4876656;29;20581;-95
2022/10/13 18:19:55;;;;;;;;;;;;;;;;;;;;;
2022/10/13 18:23:09;;;;;;;10.63;4.30;;;12.50;99.90;;;;;;4873980;29;20087;-94
2022/10/13 18:26:37;;;;;;;12.25;4.38;;;12.60;99.90;;;;;;4869098;29;20063;-95
2022/10/13 18:29:44;;;;;;;8.75;4.05;;;12.90;99.90;;;;;;4840448;29;20191;-95
2022/10/13 18:33:18;;;;;;;12.85;4.60;;;12.80;99.90;;;;;;4885382;29;20052;-95
2022/10/13 18:36:54;;;;;;;12.93;4.70;;;12.60;99.90;;;;;;4882481;29;20056;-95
2022/10/13 18:39:36;;;;;;;11.13;4.00;;;12.70;99.90;;;;;;4851490;29;20053;-94
2022/10/13 18:42:36;;;;;;;8.48;3.90;;;12.70;99.90;;;;;;4837446;29;20075;-96
2022/10/13 18:45:38;;;;;;;11.32;4.40;;;13.00;99.90;;;;;;4838504;29;20511;-95
2022/10/13 18:48:30;;;;;;;10.88;4.10;;;12.60;99.90;;;;;;4822044;29;20391;-94
2022/10/13 18:51:17;;;;;;;8.05;4.32;;;13.00;99.90;;;;;;4822740;29;20502;-94
2022/10/13 18:54:10;;;;;;;14.18;6.10;;;12.80;99.90;;;;;;4860465;29;20067;-95
2022/10/13 18:57:18;;;;;;;17.85;7.80;;;12.80;99.90;;;;;;4859863;29;20574;-95
2022/10/13 19:00:09;;;;;;;19.83;8.55;;;12.90;99.90;;;;;;4892481;29;20398;-94
2022/10/13 19:03:35;;;;;;;16.08;7.30;;;12.60;99.90;;;;;;4864284;29;20215;-95
2022/10/13 19:06:47;;;;;;;31.60;15.82;;;12.70;99.90;;;;;;4874797;29;20112;-95
2022/10/13 19:09:30;;;;;;;28.70;16.77;;;13.00;99.90;;;;;;4860590;29;20048;-96
2022/10/13 19:13:16;;;;;;;40.08;21.92;;;12.60;99.90;;;;;;4876298;29;20071;-94
2022/10/13 19:16:08;;;;;;;47.33;26.15;;;12.90;99.90;;;;;;4896457;29;20524;-95
2022/10/13 19:18:49;;;;;;;48.75;27.83;;;12.80;99.90;;;;;;4894970;29;20135;-95
2022/10/13 19:21:39;;;;;;;54.78;31.67;;;12.50;99.90;;;;;;4910052;29;20044;-95
2022/10/13 19:24:56;;;;;;;61.13;33.75;;;12.70;99.90;;;;;;4895909;29;20056;-95
2022/10/13 19:35:26;;;;;;;72.38;36.80;;;12.80;99.90;;;;;;4819575;29;20069;-96
2022/10/13 19:38:48;;;;;;;;;;;;;;;;;;;;;
2022/10/13 19:42:33;;;;;;;74.25;37.00;;;12.80;99.90;;;;;;4763656;30;20056;-96
2022/10/13 19:45:58;;;;;;;;;;;;;;;;;;;;;
2022/10/13 19:57:37;;;;;;;68.72;37.25;;;12.60;99.90;;;;;;4642530;30;20103;-96
2022/10/13 20:01:17;;;;;;;77.65;38.47;;;12.80;99.90;;;;;;4731704;30;20056;-96
2022/10/13 20:04:23;;;;;;;79.32;38.72;;;12.80;99.90;;;;;;4725202;30;20068;-96
2022/10/13 20:07:19;;;;;;;76.07;37.78;;;12.60;99.90;;;;;;4739444;30;20037;-96
2022/10/13 20:10:36;;;;;;;85.90;40.17;;;12.90;99.90;;;;;;4768776;30;20146;-96
2022/10/13 20:13:29;;;;;;;77.38;39.17;;;12.70;99.90;;;;;;4760682;29;20170;-96
2022/10/13 20:16:14;;;;;;;67.72;34.65;;;12.80;99.90;;;;;;4882803;29;20059;-96
2022/10/13 20:19:42;;;;;;;76.80;39.40;;;12.90;99.90;;;;;;4903173;29;20096;-95
2022/10/13 20:33:34;;;;;;;60.63;34.15;;;13.20;99.90;;;;;;4849977;29;19928;-96
2022/10/13 20:47:55;;;;;;;;;;;;;;;;;;;;;
2022/10/13 20:51:12;;;;;;;86.80;42.03;;;12.50;99.90;;;;;;4897581;29;20064;-96
2022/10/13 20:57:38;;;;;;;83.25;37.90;;;12.50;99.90;;;;;;4867181;29;20060;-95
2022/10/13 21:00:42;;;;;;;;;;;;;;;;;;;;;
2022/10/13 21:07:35;;;;;;;59.83;33.63;;;12.60;99.90;;;;;;4980263;23;20056;-96
2022/10/13 21:10:02;;;;;;;79.57;37.75;;;12.40;99.90;;;;;;4873900;29;20052;-96
2022/10/13 21:12:28;;;;;;;76.07;38.53;;;12.60;99.90;;;;;;4869546;29;20049;-96
2022/10/13 21:14:57;;;;;;;83.82;40.50;;;12.60;99.90;;;;;;4864923;29;20135;-96
2022/10/13 21:17:23;;;;;;;61.05;34.40;;;12.60;99.90;;;;;;4845711;29;20136;-96
2022/10/13 21:19:49;;;;;;;60.72;33.47;;;12.60;99.90;;;;;;4845765;29;20084;-96
2022/10/13 21:22:15;;;;;;;66.85;35.63;;;12.50;99.90;;;;;;4847127;29;20057;-96
2022/10/13 21:24:40;;;;;;;70.72;36.63;;;12.50;99.90;;;;;;4846628;29;20056;-96
2022/10/13 21:27:06;;;;;;;62.83;35.17;;;11.90;99.90;;;;;;4844233;29;20081;-96
2022/10/13 21:29:32;;;;;;;66.45;36.40;;;12.50;99.90;;;;;;4845860;29;20088;-96
2022/10/13 21:31:58;;;;;;;66.18;36.13;;;12.50;99.90;;;;;;4844723;29;20100;-96
2022/10/13 21:34:24;;;;;;;86.25;38.67;;;12.40;99.90;;;;;;4846275;29;20053;-96
2022/10/13 21:36:49;;;;;;;105.55;42.35;;;12.30;99.90;;;;;;4844848;29;20057;-96
2022/10/13 21:39:15;;;;;;;107.70;45.05;;;12.40;99.90;;;;;;4843882;29;20140;-96
2022/10/13 21:41:41;;;;;;;112.55;45.97;;;12.30;99.90;;;;;;4843866;29;20072;-96
2022/10/13 21:44:11;;;;;;;97.85;42.78;;;12.50;99.90;;;;;;4843916;29;20064;-96
2022/10/13 21:46:36;;;;;;;74.85;37.78;;;12.40;99.90;;;;;;4843425;29;20558;-96
2022/10/13 21:49:04;;;;;;;82.47;38.20;;;12.50;99.90;;;;;;4845089;29;20088;-96
2022/10/13 21:51:33;;;;;;;71.65;36.05;;;12.50;99.90;;;;;;4854293;29;20111;-96
2022/10/13 21:54:03;;;;;;;71.25;38.80;;;12.50;99.90;;;;;;4862616;29;20168;-96
2022/10/13 21:56:29;;;;;;;72.43;36.53;;;12.50;99.90;;;;;;4862556;29;20114;-96
2022/10/13 21:58:55;;;;;;;65.20;36.92;;;12.50;99.90;;;;;;4863687;29;20048;-96
2022/10/13 22:01:22;;;;;;;62.92;35.72;;;12.30;99.90;;;;;;4863779;29;20508;-96
2022/10/13 22:03:52;;;;;;;110.75;42.53;;;12.40;99.90;;;;;;4862522;29;20052;-96
2022/10/13 22:06:18;;;;;;;64.53;35.70;;;12.30;99.90;;;;;;4861526;29;20047;-96
2022/10/13 22:08:45;;;;;;;55.92;33.45;;;12.40;99.90;;;;;;4862090;29;20060;-96
2022/10/13 22:11:12;;;;;;;63.53;37.33;;;12.40;99.90;;;;;;4861434;29;20052;-96
2022/10/13 22:13:38;;;;;;;108.90;45.10;;;12.30;99.90;;;;;;4860877;29;20088;-96
2022/10/13 22:16:07;;;;;;;85.93;41.05;;;12.40;99.90;;;;;;4861813;29;20129;-96
2022/10/13 22:18:33;;;;;;;67.85;36.85;;;12.30;99.90;;;;;;4861924;29;20066;-96
2022/10/13 22:21:01;;;;;;;128.63;46.88;;;12.30;99.90;;;;;;4860741;29;20049;-96
2022/10/13 22:23:27;;;;;;;107.50;43.40;;;12.40;99.90;;;;;;4861906;29;20059;-96
2022/10/13 22:25:53;;;;;;;114.20;44.92;;;12.20;99.90;;;;;;4860510;29;20041;-96
2022/10/13 22:28:20;;;;;;;99.40;43.53;;;12.50;99.90;;;;;;4860800;29;20482;-96
2022/10/13 22:30:46;;;;;;;103.18;43.10;;;12.20;99.90;;;;;;4861659;29;20446;-96
2022/10/13 22:33:14;;;;;;;102.70;43.75;;;12.40;99.90;;;;;;4862747;29;20061;-96
2022/10/13 22:35:40;;;;;;;97.65;42.88;;;12.50;99.90;;;;;;4861427;29;20041;-96
2022/10/13 22:38:05;;;;;;;106.13;44.50;;;12.40;99.90;;;;;;4860807;29;20175;-96
2022/10/13 22:40:31;;;;;;;106.18;43.45;;;12.20;99.90;;;;;;4861205;29;20094;-96
2022/10/13 22:43:00;;;;;;;86.03;41.00;;;12.20;99.90;;;;;;4861129;29;20045;-96
2022/10/13 22:45:25;;;;;;;91.63;40.58;;;12.30;99.90;;;;;;4862965;29;20162;-96
2022/10/13 22:47:51;;;;;;;72.75;38.13;;;12.20;99.90;;;;;;4862609;29;20068;-96
2022/10/13 22:50:18;;;;;;;85.30;40.55;;;12.30;99.90;;;;;;4861054;29;20517;-96
2022/10/13 22:52:44;;;;;;;85.03;40.30;;;12.10;99.90;;;;;;4861526;29;20052;-96
2022/10/13 22:55:10;;;;;;;80.30;39.53;;;12.20;99.90;;;;;;4860483;29;20045;-95
2022/10/13 22:57:36;;;;;;;85.15;40.15;;;12.10;99.90;;;;;;4860716;29;20049;-96
2022/10/13 23:00:04;;;;;;;69.00;38.10;;;12.20;99.90;;;;;;4861235;29;20056;-96
2022/10/13 23:02:30;;;;;;;72.40;39.20;;;12.10;99.90;;;;;;4861271;29;20059;-96
2022/10/13 23:04:55;;;;;;;66.07;36.72;;;12.10;99.90;;;;;;4860756;29;20053;-96
2022/10/13 23:07:21;;;;;;;74.25;37.80;;;12.20;99.90;;;;;;4868470;29;20048;-96
2022/10/13 23:09:47;;;;;;;74.55;38.25;;;12.10;99.90;;;;;;4879423;29;20095;-96
2022/10/13 23:12:13;;;;;;;73.00;37.17;;;12.30;99.90;;;;;;4879253;29;20052;-96
2022/10/13 23:14:38;;;;;;;70.18;36.85;;;12.10;99.90;;;;;;4879905;29;20422;-96
2022/10/13 23:17:04;;;;;;;65.55;36.10;;;12.20;99.90;;;;;;4848105;29;20054;-96
2022/10/13 23:19:30;;;;;;;46.53;29.67;;;12.00;99.90;;;;;;4842509;29;20049;-96
2022/10/13 23:21:56;;;;;;;67.63;36.20;;;11.70;99.90;;;;;;4842121;29;20117;-96
2022/10/13 23:24:21;;;;;;;60.67;33.55;;;12.00;99.90;;;;;;4842018;29;20065;-96
2022/10/13 23:26:47;;;;;;;46.22;29.65;;;11.70;99.90;;;;;;4844887;29;20057;-96
2022/10/13 23:29:13;;;;;;;61.28;33.47;;;11.70;99.90;;;;;;4846154;29;20554;-96
2022/10/13 23:31:39;;;;;;;45.72;28.83;;;11.60;99.90;;;;;;4845374;29;20050;-96
2022/10/13 23:34:05;;;;;;;272.30;36.15;;;11.60;99.90;;;;;;4845911;29;20060;-96
2022/10/13 23:36:32;;;;;;;38.70;25.92;;;11.50;99.90;;;;;;4845847;29;20061;-96
2022/10/13 23:39:00;;;;;;;49.53;28.55;;;11.20;99.90;;;;;;4845196;29;20485;-96
2022/10/13 23:41:27;;;;;;;132.57;31.05;;;11.20;99.90;;;;;;4845953;29;20121;-96
2022/10/13 23:43:53;;;;;;;68.25;27.25;;;11.00;99.90;;;;;;4845460;29;20045;-96
2022/10/13 23:46:19;;;;;;;289.92;35.08;;;11.10;99.90;;;;;;4844969;29;20494;-95
2022/10/13 23:48:45;;;;;;;56.72;27.40;;;10.80;99.90;;;;;;4844881;29;20045;-96
2022/10/13 23:51:14;;;;;;;47.00;26.08;;;10.90;99.90;;;;;;4844116;29;20198;-96
2022/10/13 23:53:40;;;;;;;107.22;23.55;;;10.80;99.90;;;;;;4845649;29;20049;-96
2022/10/13 23:56:07;;;;;;;570.30;29.58;;;10.70;99.90;;;;;;4846062;29;20128;-96
2022/10/13 23:58:35;;;;;;;253.50;20.10;;;10.50;99.90;;;;;;4844944;29;20049;-96
